Newport, Victoria

12:25 PM AEST on August 04, 2015 (GMT +1000)
IVICTORI226 | | Change Station
CLOSE
Current Station
Personal Weather Station
Location: Newport, VICTORIA
Elevation: 49 ft
Nearby Weather Stations

Elev 49 ft 37.85 °S, 144.89 °E | Updated 17 days ago

Mostly Cloudy
Mostly Cloudy
50 °F
Feels Like 50 °F
N
13
Wind Variable Wind from WNW
Gusts 19 mph

Today
High -- | Low -- °F
--% Chance of Precip.
Yesterday
High -- | Low -- °F
Precip. -- in
7:18 AM 5:35 PM
Waning Gibbous, 82% visible
Pressure 30.18 in
Visibility 6.2 miles
Clouds Few 3900 ft
Mostly Cloudy 5300 ft
Dew Point 33 °F
Humidity 52%
Rainfall in
Snow Depth Not available.
UV 3 out of 12
Pollen Not available.
Air Quality Not available.
Flu Activity Not available.
METAR YMML 040200Z 27013KT 9999 FEW039 BKN053 09/M01 Q1022 NOSIG

More Conditions Fewer Conditions

Pressure 30.18 in
Visibility 6.2 miles
Clouds Few 3900 ft
Mostly Cloudy 5300 ft
Dew Point 33 °F
Humidity 52%
Rainfall in
Snow Depth Not available.
UV 3 out of 12
Pollen Not available.
Air Quality Not available.
Flu Activity Not available.
METAR YMML 040200Z 27013KT 9999 FEW039 BKN053 09/M01 Q1022 NOSIG

More Conditions Fewer Conditions

10-Day Weather Forecast

×

Almanac

Astronomy

Aug. 04, 2015 Rise Set
Actual Time
Civil Twilight
Nautical Twilight
Astronomical Twilight
Moon
Length of Visible Light
Length of Day
Tomorrow will be .
, % of the Moon is Illuminated

Today's Extremes

Country Highs Country Lows

Community

WunderPhotos

Upload Photos

1,843,831 photos uploaded!

WunderBlogs® & News

Nearby

Air Quality

  Air Quality AQ Index Pollutant
Not available.

Snow Depth

Station Depth Elevation

Earthquake Activity

City Distance Mag. Time & Date
Minimum magnitude displayed is 2.5.

Coastal Water Temperatures

Place Temperature

Stations

Nearby Weather Stations

Station Location Temp. Windchill Dew Point Humidity Wind Precip. Elev Updated Type